Detall de PIREP

Printer-friendly versionPDF version

[2013/02/16 14:34:00]
Flight IATA:CT3301
Pilot Number:012
Company ICAO:CAT
Aircraft Type:F50/A
PAX:50
Aircraft Registration:PAOB
Departing Airport: DAAG
Destination Airport: LEZG
Alternate Airport:LEBL
Online: VATSIM
Route:SADAF G30 IZA A293 EBROX R80 MLA
Flight Level:F220
No Slew and time accel
No pause
Crash detect
Detect pilot in Cockpit between each 30 and 45 minutes
14:34 Zero fuel Weight: 35633 Lbs, Fuel Weight: 4521 Lbs
14:34 VATSIM:DAAG 161400Z 04005KT 340V090 9999 FEW026 18/10 Q1019
14:34 VATSIM:LEZG 161400Z 00000KT 8000 NSC 13/04 Q1018
14:34 VOICE CATALONIAN
14:35 Parking Brakes off
14:40 Take-off
14:40 Take off Weight: 40080 Lbs
14:40 Wind: 049º @ 005 Knots Heading: 052º
14:40 POS N36º 41´ 59´´ E003º 13´ 46´´
14:40 Gear Up: 108 Knots
14:40 Flaps:3 at 108 Knots
14:40 Flaps:2 at 134 Knots
14:40 Flaps:1 at 153 Knots
14:40 Flaps:0 at 161 Knots
14:55 Wind:291º@018 Knots Heading: 324º Ground Speed: 199 Knots Altitude 19855 ft
14:57 TOC
14:57 Fuel Weight: 3845 Lb
15:10 Wind:291º@027 Knots Heading: 325º Ground Speed: 234 Knots Altitude 22165 ft
15:25 Wind:291º@027 Knots Heading: 324º Ground Speed: 234 Knots Altitude 22168 ft
15:40 Wind:292º@026 Knots Heading: 348º Ground Speed: 243 Knots Altitude 22158 ft
15:53 TOD
15:53 Fuel Weight: 2433 Lb
15:55 Wind:296º@016 Knots Heading: 292º Ground Speed: 264 Knots Altitude 19101 ft
16:10 Wind:250º@004 Knots Heading: 286º Ground Speed: 236 Knots Altitude 4957 ft
16:20 Flaps:1 at 124 Knots
16:20 Flaps:2 at 128 Knots
16:20 Gear Down: 129 Knots
16:20 Flaps:3 at 122 Knots
16:21 Flaps:4 at 94 Knots
16:21 Flaps:5 at 111 Knots
16:21 Flaps:6 at 105 Knots
16:25 Wind:343º@001 Knots Heading: 300º Ground Speed: 095 Knots Altitude 872 ft
16:25 TouchDown:Rate -307 ft/min Speed: 96 Knots
16:25 Flaps:4 at 13 Knots
16:25 VATSIM:LEZG 161600Z VRB01KT 5000 HZ NSC 12/04 Q1018
16:25 Land
16:25 Wind:343º@001 Knots
16:25 Heading: 344º
16:25 Flight Duration: 01:45
16:25 Landing Weight: 37358 Lbs
16:25 POS N41º 39´ 31´´ W001º 00´ 57´´
16:26 Parking brakes on
16:26 Block to Block Duration: 01:51
16:26 Final Fuel: 1708 Lbls
16:26 Spent Fuel: 2813 Lbls
16:26 Flight Length: 387 NM
16:26 TOD Land Length: 114 NM

Exportar CSV

Powered by Drupal - Modified by Danger4k